createdAt,value
2022-09-21T00:01:40.997Z,3.33
2022-09-21T00:04:11.499Z,3.63
2022-09-21T00:06:39.985Z,3.80
2022-09-21T00:09:09.490Z,3.58
2022-09-21T00:11:38.571Z,3.72
2022-09-21T00:14:15.034Z,4.05
2022-09-21T00:16:44.609Z,3.63
2022-09-21T00:19:21.082Z,3.50
2022-09-21T00:21:49.782Z,3.47
2022-09-21T00:24:18.353Z,3.42
2022-09-21T00:26:46.883Z,3.45
2022-09-21T00:29:16.847Z,3.22
2022-09-21T00:31:45.447Z,3.45
2022-09-21T00:34:14.070Z,3.42
2022-09-21T00:36:42.803Z,3.67
2022-09-21T00:39:11.359Z,3.65
2022-09-21T00:41:39.944Z,3.70
2022-09-21T00:44:31.279Z,3.47
2022-09-21T00:47:05.786Z,3.42
2022-09-21T00:49:36.062Z,3.35
2022-09-21T00:52:08.119Z,3.63
2022-09-21T00:54:42.145Z,3.42
2022-09-21T00:57:11.391Z,3.50
2022-09-21T00:59:43.828Z,3.80
2022-09-21T01:02:12.700Z,3.60
2022-09-21T01:04:41.370Z,3.70
2022-09-21T01:07:13.035Z,3.50
2022-09-21T01:09:43.667Z,3.15
2022-09-21T01:12:25.131Z,3.65
2022-09-21T01:15:12.926Z,3.60
2022-09-21T01:17:49.987Z,3.80
2022-09-21T01:20:36.630Z,3.60
2022-09-21T01:23:35.711Z,3.97
2022-09-21T01:26:17.188Z,3.67
2022-09-21T01:29:08.642Z,3.65
2022-09-21T01:31:41.495Z,4.03
2022-09-21T01:34:17.026Z,3.75
2022-09-21T01:36:49.475Z,3.78
2022-09-21T01:39:20.779Z,3.47
2022-09-21T01:41:52.043Z,3.70
2022-09-21T01:44:26.085Z,3.92
2022-09-21T01:46:55.734Z,3.53
2022-09-21T01:49:28.628Z,3.58
2022-09-21T01:52:01.742Z,3.78
2022-09-21T01:54:35.423Z,3.28
2022-09-21T01:57:12.379Z,3.42
2022-09-21T01:59:50.989Z,3.67
2022-09-21T02:02:25.167Z,3.55
2022-09-21T02:04:53.939Z,3.92
2022-09-21T02:07:22.783Z,4.28
2022-09-21T02:09:51.307Z,3.97
2022-09-21T02:12:19.798Z,3.72
2022-09-21T02:14:51.411Z,4.15
2022-09-21T02:17:35.703Z,3.70
2022-09-21T02:20:15.147Z,3.65
2022-09-21T02:22:54.927Z,6.07
2022-09-21T02:25:34.121Z,5.43
2022-09-21T02:28:09.600Z,4.35
2022-09-21T02:30:42.177Z,3.55
2022-09-21T02:33:17.751Z,4.22
2022-09-21T02:35:52.149Z,3.70
2022-09-21T02:41:00.103Z,4.03
2022-09-21T02:43:35.175Z,3.50
2022-09-21T02:46:12.807Z,3.38
2022-09-21T02:48:47.178Z,3.22
2022-09-21T02:53:49.430Z,3.50
2022-09-21T02:56:18.246Z,3.75
2022-09-21T02:58:51.482Z,3.53
2022-09-21T03:01:22.971Z,3.40
2022-09-21T03:03:51.970Z,3.60
2022-09-21T03:06:20.670Z,3.80
2022-09-21T03:08:49.287Z,3.50
2022-09-21T03:11:18.182Z,3.70
2022-09-21T03:13:47.167Z,3.70
2022-09-21T03:16:16.513Z,4.10
2022-09-21T03:18:46.457Z,3.50
2022-09-21T03:21:14.978Z,4.20
2022-09-21T03:23:43.454Z,3.45
2022-09-21T03:26:11.938Z,4.20
2022-09-21T03:28:40.908Z,4.00
2022-09-21T03:31:09.813Z,3.88
2022-09-21T03:33:38.334Z,4.28
2022-09-21T03:36:09.194Z,3.78
2022-09-21T03:38:37.816Z,4.32
2022-09-21T03:41:07.465Z,4.43
2022-09-21T03:43:35.982Z,4.65
2022-09-21T03:46:04.517Z,4.55
2022-09-21T03:48:33.776Z,4.25
2022-09-21T03:51:02.274Z,4.65
2022-09-21T03:53:32.178Z,4.30
2022-09-21T03:56:00.822Z,4.10
2022-09-21T03:58:29.308Z,4.57
2022-09-21T04:01:02.786Z,4.10
2022-09-21T04:03:31.669Z,4.28
2022-09-21T04:06:00.169Z,3.72
2022-09-21T04:08:28.679Z,4.18
2022-09-21T04:10:58.683Z,4.60
2022-09-21T04:13:27.273Z,4.20
2022-09-21T04:15:55.794Z,4.20
2022-09-21T04:18:24.343Z,4.55
2022-09-21T04:20:52.878Z,3.95
2022-09-21T04:23:23.026Z,3.78
2022-09-21T04:25:52.435Z,4.05
2022-09-21T04:28:22.770Z,4.15
2022-09-21T04:30:54.372Z,3.78
2022-09-21T04:33:23.967Z,4.22
2022-09-21T04:35:56.025Z,4.20
2022-09-21T04:38:24.665Z,4.88
2022-09-21T04:40:58.249Z,4.07
2022-09-21T04:43:28.178Z,4.03
2022-09-21T04:45:56.701Z,4.05
2022-09-21T04:48:25.316Z,4.43
2022-09-21T04:50:53.877Z,4.15
2022-09-21T04:53:22.362Z,3.97
2022-09-21T04:55:51.187Z,3.80
2022-09-21T04:58:24.270Z,4.35
2022-09-21T05:00:55.363Z,3.97
2022-09-21T05:03:25.445Z,4.18
2022-09-21T05:05:55.288Z,4.03
2022-09-21T05:08:38.835Z,4.25
2022-09-21T05:11:12.799Z,4.25
2022-09-21T05:13:41.767Z,4.55
2022-09-21T05:16:12.133Z,4.90
2022-09-21T05:18:40.724Z,4.85
2022-09-21T05:21:09.219Z,5.80
2022-09-21T05:23:37.762Z,5.32
2022-09-21T05:26:07.158Z,4.90
2022-09-21T05:28:39.822Z,5.55
2022-09-21T05:31:28.442Z,5.57
2022-09-21T05:34:03.781Z,5.18
2022-09-21T05:36:46.854Z,5.25
2022-09-21T05:39:15.930Z,5.15
2022-09-21T05:41:45.007Z,4.85
2022-09-21T05:44:15.499Z,5.13
2022-09-21T05:46:55.925Z,4.95
2022-09-21T05:49:34.423Z,4.97
2022-09-21T05:52:10.885Z,4.90
2022-09-21T05:54:51.943Z,5.50
2022-09-21T05:57:30.896Z,5.00
2022-09-21T06:00:10.923Z,5.35
2022-09-21T06:03:23.113Z,4.78
2022-09-21T06:05:52.155Z,5.70
2022-09-21T06:08:20.706Z,5.88
2022-09-21T06:10:49.278Z,6.00
2022-09-21T06:13:17.899Z,5.97
2022-09-21T06:15:46.800Z,5.78
2022-09-21T06:18:18.202Z,5.78
2022-09-21T06:20:47.078Z,5.30
2022-09-21T06:23:16.684Z,5.63
2022-09-21T06:25:45.293Z,5.85
2022-09-21T06:28:14.198Z,5.85
2022-09-21T06:30:45.080Z,5.32
2022-09-21T06:33:14.470Z,5.38
2022-09-21T06:35:44.350Z,11.15
2022-09-21T06:38:12.910Z,7.22
2022-09-21T06:40:41.440Z,5.65
2022-09-21T06:43:10.060Z,7.10
2022-09-21T06:45:38.772Z,7.28
2022-09-21T06:48:07.299Z,6.47
2022-09-21T06:50:36.409Z,6.55
2022-09-21T06:53:06.321Z,6.85
2022-09-21T06:55:34.884Z,6.13
2022-09-21T06:58:03.673Z,6.43
2022-09-21T07:00:32.584Z,5.78
2022-09-21T07:03:01.285Z,6.88
2022-09-21T07:05:29.837Z,6.20
2022-09-21T07:07:59.332Z,6.50
2022-09-21T07:10:29.367Z,6.38
2022-09-21T07:13:03.342Z,6.07
2022-09-21T07:15:31.927Z,6.50
2022-09-21T07:18:07.717Z,8.02
2022-09-21T07:20:36.421Z,6.60
2022-09-21T07:23:11.639Z,5.57
2022-09-21T07:25:41.712Z,5.13
2022-09-21T07:28:10.276Z,5.40
2022-09-21T07:30:39.184Z,5.13
2022-09-21T07:33:08.257Z,4.68
2022-09-21T07:35:36.845Z,6.38
2022-09-21T07:38:07.795Z,7.63
2022-09-21T07:40:36.890Z,6.40
2022-09-21T07:43:07.111Z,5.40
2022-09-21T07:45:35.806Z,5.53
2022-09-21T07:48:05.027Z,6.88
2022-09-21T07:50:34.810Z,6.78
2022-09-21T07:53:04.132Z,6.60
2022-09-21T07:55:32.703Z,7.10
2022-09-21T07:58:18.646Z,6.95
2022-09-21T08:00:48.691Z,7.00
2022-09-21T08:03:17.385Z,6.93
2022-09-21T08:05:46.133Z,6.75
2022-09-21T08:08:15.595Z,6.43
2022-09-21T08:10:44.197Z,6.95
2022-09-21T08:13:12.774Z,7.43
2022-09-21T08:15:49.859Z,7.53
2022-09-21T08:18:20.193Z,7.85
2022-09-21T08:20:55.150Z,7.53
2022-09-21T08:23:23.804Z,7.20
2022-09-21T08:25:52.372Z,7.35
2022-09-21T08:28:20.903Z,7.60
2022-09-21T08:30:49.437Z,8.45
2022-09-21T08:33:18.588Z,7.40
2022-09-21T08:35:54.771Z,7.53
2022-09-21T08:38:23.877Z,7.13
2022-09-21T08:40:53.858Z,6.45
2022-09-21T08:43:33.220Z,7.00
2022-09-21T08:46:05.085Z,5.95
2022-09-21T08:48:40.219Z,6.55
2022-09-21T08:51:16.019Z,6.70
2022-09-21T08:53:47.063Z,6.78
2022-09-21T08:56:17.316Z,5.57
2022-09-21T08:58:46.330Z,15.85
2022-09-21T09:01:39.688Z,8.43
2022-09-21T09:04:40.879Z,5.80
2022-09-21T09:07:27.449Z,5.97
2022-09-21T09:10:21.611Z,6.40
2022-09-21T09:13:01.959Z,7.05
2022-09-21T09:15:48.890Z,6.55
2022-09-21T09:18:27.696Z,7.10
2022-09-21T09:20:59.349Z,6.65
2022-09-21T09:23:33.839Z,6.93
2022-09-21T09:26:09.019Z,6.53
2022-09-21T09:28:42.960Z,5.72
2022-09-21T09:31:17.801Z,5.88
2022-09-21T09:33:53.329Z,6.03
2022-09-21T09:36:46.662Z,5.35
2022-09-21T09:39:15.836Z,5.60
2022-09-21T09:42:16.618Z,4.60
2022-09-21T09:45:24.544Z,5.00
2022-09-21T09:48:07.883Z,4.70
2022-09-21T09:50:38.964Z,5.20
2022-09-21T09:53:12.305Z,4.32
2022-09-21T09:55:44.811Z,7.05
2022-09-21T09:58:20.580Z,4.88
2022-09-21T10:00:53.311Z,4.47
2022-09-21T10:03:24.521Z,4.32
2022-09-21T10:05:53.108Z,6.35
2022-09-21T10:08:30.164Z,4.63
2022-09-21T10:11:00.137Z,4.03
2022-09-21T10:13:31.646Z,4.47
2022-09-21T10:16:02.040Z,3.35
2022-09-21T10:18:38.540Z,3.80
2022-09-21T10:21:09.710Z,5.25
2022-09-21T10:23:39.520Z,4.07
2022-09-21T10:26:12.190Z,55.30
2022-09-21T10:28:57.022Z,42.08
2022-09-21T10:31:27.863Z,64.93
2022-09-21T10:34:08.114Z,26.98
2022-09-21T10:36:38.883Z,8.88
2022-09-21T10:39:21.472Z,15.93
2022-09-21T10:41:54.736Z,9.10
2022-09-21T10:44:27.275Z,9.45
2022-09-21T10:49:31.622Z,7.22
2022-09-21T10:52:00.711Z,20.98
2022-09-21T10:54:32.939Z,5.38
2022-09-21T10:57:08.771Z,11.05
2022-09-21T10:59:38.292Z,13.25
2022-09-21T11:02:29.736Z,13.50
2022-09-21T11:05:04.158Z,3.42
2022-09-21T11:07:41.379Z,2.28
2022-09-21T11:10:19.829Z,3.60
2022-09-21T11:13:00.130Z,2.95
2022-09-21T11:15:44.377Z,2.20
2022-09-21T11:18:21.536Z,3.88
2022-09-21T11:20:56.245Z,2.40
2022-09-21T11:23:40.321Z,3.33
2022-09-21T11:26:15.354Z,1.80
2022-09-21T11:28:52.318Z,1.98
2022-09-21T11:31:36.892Z,3.10
2022-09-21T11:36:54.215Z,6.32
2022-09-21T11:39:32.927Z,2.55
2022-09-21T11:42:16.569Z,1.70
2022-09-21T11:44:55.906Z,1.53
2022-09-21T11:47:48.787Z,7.40
2022-09-21T11:50:32.101Z,2.40
2022-09-21T11:53:16.324Z,5.28
2022-09-21T11:56:04.337Z,5.40
2022-09-21T11:58:40.845Z,3.22
2022-09-21T12:01:25.067Z,3.00
2022-09-21T12:06:54.029Z,1.52
2022-09-21T12:10:00.682Z,2.80
2022-09-21T12:12:34.528Z,5.97
2022-09-21T12:15:11.338Z,3.45
2022-09-21T12:17:50.816Z,4.13
2022-09-21T12:20:27.783Z,2.00
2022-09-21T12:23:02.171Z,1.70
2022-09-21T12:25:36.329Z,5.38
2022-09-21T12:30:42.176Z,5.38
2022-09-21T12:33:19.323Z,12.68
2022-09-21T12:38:24.397Z,6.45
2022-09-21T12:40:58.098Z,6.25
2022-09-21T12:43:36.087Z,4.20
2022-09-21T12:46:09.247Z,2.80
2022-09-21T12:48:42.346Z,2.70
2022-09-21T12:51:16.115Z,4.25
2022-09-21T12:53:50.768Z,4.78
2022-09-21T12:56:30.934Z,2.38
2022-09-21T12:59:12.126Z,1.88
2022-09-21T13:01:47.824Z,1.60
2022-09-21T13:04:38.555Z,2.50
2022-09-21T13:07:34.867Z,2.10
2022-09-21T13:10:18.607Z,1.80
2022-09-21T13:12:53.133Z,1.67
2022-09-21T13:15:27.186Z,2.53
2022-09-21T13:18:01.455Z,1.90
2022-09-21T13:20:39.938Z,2.20
2022-09-21T13:23:17.838Z,1.70
2022-09-21T13:25:50.329Z,2.67
2022-09-21T13:28:24.066Z,5.05
2022-09-21T13:31:42.401Z,3.50
2022-09-21T13:34:33.105Z,3.10
2022-09-21T13:37:44.503Z,1.73
2022-09-21T13:40:50.625Z,3.40
2022-09-21T13:43:23.683Z,1.90
2022-09-21T13:46:01.613Z,2.30
2022-09-21T13:48:30.855Z,1.73
2022-09-21T13:51:09.319Z,3.67
2022-09-21T13:53:42.442Z,1.90
2022-09-21T13:56:20.391Z,1.60
2022-09-21T13:58:53.342Z,1.90
2022-09-21T14:01:45.722Z,2.28
2022-09-21T14:04:22.118Z,2.10
2022-09-21T14:06:53.425Z,2.35
2022-09-21T14:09:28.858Z,2.22
2022-09-21T14:12:01.819Z,2.03
2022-09-21T14:14:37.289Z,1.50
2022-09-21T14:17:07.186Z,1.80
2022-09-21T14:20:30.165Z,3.10
2022-09-21T14:23:32.516Z,3.45
2022-09-21T14:26:03.742Z,2.35
2022-09-21T14:28:40.035Z,2.20
2022-09-21T14:31:18.218Z,1.90
2022-09-21T14:34:23.996Z,2.70
2022-09-21T14:36:59.874Z,2.40
2022-09-21T14:39:33.592Z,1.80
2022-09-21T14:42:16.128Z,2.55
2022-09-21T14:44:49.362Z,1.88
2022-09-21T14:47:39.091Z,1.90
2022-09-21T14:50:21.578Z,1.60
2022-09-21T14:56:51.734Z,2.05
2022-09-21T14:59:35.828Z,1.50
2022-09-21T15:02:18.089Z,2.50
2022-09-21T15:05:04.340Z,1.90
2022-09-21T15:08:04.892Z,1.75
2022-09-21T15:10:56.197Z,1.42
2022-09-21T15:14:14.759Z,1.90
2022-09-21T15:16:47.227Z,1.70
2022-09-21T15:19:23.633Z,2.30
2022-09-21T15:21:53.796Z,1.65
2022-09-21T15:24:26.704Z,1.75
2022-09-21T15:27:04.051Z,2.38
2022-09-21T15:29:34.232Z,1.90
2022-09-21T15:32:06.432Z,1.80
2022-09-21T15:34:35.118Z,2.35
2022-09-21T15:37:08.808Z,1.90
2022-09-21T15:39:37.555Z,1.70
2022-09-21T15:42:23.102Z,1.85
2022-09-21T15:45:06.300Z,1.90
2022-09-21T15:47:36.449Z,1.40
2022-09-21T15:50:05.667Z,1.65
2022-09-21T15:52:39.040Z,1.80
2022-09-21T15:55:13.283Z,2.23
2022-09-21T15:57:46.927Z,1.77
2022-09-21T16:00:24.510Z,1.75
2022-09-21T16:03:05.863Z,1.50
2022-09-21T16:05:44.768Z,1.40
2022-09-21T16:08:22.672Z,2.22
2022-09-21T16:10:51.584Z,3.40
2022-09-21T16:13:39.112Z,4.05
2022-09-21T16:16:09.649Z,2.78
2022-09-21T16:18:46.803Z,2.70
2022-09-21T16:21:21.066Z,3.20
2022-09-21T16:26:24.768Z,1.60
2022-09-21T16:29:15.496Z,1.98
2022-09-21T16:31:49.648Z,2.40
2022-09-21T16:34:35.359Z,3.30
2022-09-21T16:37:23.007Z,2.20
2022-09-21T16:39:51.675Z,2.17
2022-09-21T16:42:20.893Z,2.20
2022-09-21T16:44:53.377Z,4.40
2022-09-21T16:47:25.483Z,2.35
2022-09-21T16:50:08.063Z,3.55
2022-09-21T16:52:36.563Z,2.72
2022-09-21T16:55:06.294Z,5.13
2022-09-21T16:57:34.949Z,2.55
2022-09-21T17:00:07.485Z,2.60
2022-09-21T17:02:36.248Z,2.30
2022-09-21T17:05:06.798Z,2.25
2022-09-21T17:07:35.341Z,2.83
2022-09-21T17:10:14.115Z,2.70
2022-09-21T17:12:43.066Z,3.15
2022-09-21T17:15:14.419Z,2.67
2022-09-21T17:17:43.920Z,2.88
2022-09-21T17:20:20.150Z,3.20
2022-09-21T17:22:49.130Z,7.40
2022-09-21T17:25:17.975Z,8.07
2022-09-21T17:27:46.637Z,4.72
2022-09-21T17:30:16.315Z,3.55
2022-09-21T17:32:44.883Z,4.00
2022-09-21T17:35:31.112Z,9.55
2022-09-21T17:37:59.771Z,5.80
2022-09-21T17:40:29.927Z,3.90
2022-09-21T17:43:10.651Z,3.90
2022-09-21T17:45:46.950Z,5.55
2022-09-21T17:48:20.903Z,3.70
2022-09-21T17:50:52.327Z,3.78
2022-09-21T17:53:37.296Z,5.05
2022-09-21T17:56:21.661Z,5.28
2022-09-21T17:58:58.035Z,4.28
2022-09-21T18:01:33.934Z,4.88
2022-09-21T18:04:03.531Z,4.75
2022-09-21T18:06:34.752Z,3.80
2022-09-21T18:09:04.472Z,4.30
2022-09-21T18:12:01.962Z,3.88
2022-09-21T18:14:41.190Z,3.90
2022-09-21T18:17:26.279Z,3.78
2022-09-21T18:20:14.174Z,4.07
2022-09-21T18:22:53.060Z,4.30
2022-09-21T18:25:28.694Z,4.90
2022-09-21T18:27:59.848Z,7.57
2022-09-21T18:30:29.248Z,5.32
2022-09-21T18:33:14.851Z,5.13
2022-09-21T18:36:01.538Z,4.30
2022-09-21T18:38:38.915Z,4.32
2022-09-21T18:41:23.828Z,4.28
2022-09-21T18:44:13.248Z,5.40
2022-09-21T18:46:54.014Z,4.45
2022-09-21T18:49:41.931Z,4.90
2022-09-21T18:52:20.073Z,3.97
2022-09-21T18:54:50.548Z,4.45
2022-09-21T18:57:19.552Z,3.90
2022-09-21T18:59:48.909Z,4.30
2022-09-21T19:02:20.386Z,4.40
2022-09-21T19:04:50.043Z,5.38
2022-09-21T19:07:29.066Z,4.82
2022-09-21T19:10:08.168Z,5.63
2022-09-21T19:12:50.315Z,6.18
2022-09-21T19:15:42.132Z,5.80
2022-09-21T19:18:21.146Z,6.15
2022-09-21T19:21:02.431Z,8.10
2022-09-21T19:23:42.229Z,7.05
2022-09-21T19:26:17.542Z,7.13
2022-09-21T19:29:07.363Z,5.00
2022-09-21T19:31:36.539Z,4.68
2022-09-21T19:34:14.627Z,6.20
2022-09-21T19:36:43.498Z,5.25
2022-09-21T19:39:12.767Z,5.35
2022-09-21T19:41:54.655Z,5.47
2022-09-21T19:44:45.233Z,4.65
2022-09-21T19:47:24.168Z,4.85
2022-09-21T19:49:55.043Z,5.38
2022-09-21T19:52:30.419Z,4.70
2022-09-21T19:55:17.198Z,4.38
2022-09-21T19:58:05.581Z,4.65
2022-09-21T20:00:34.539Z,4.75
2022-09-21T20:03:08.088Z,7.03
2022-09-21T20:05:47.812Z,6.17
2022-09-21T20:08:22.523Z,6.40
2022-09-21T20:11:02.903Z,6.13
2022-09-21T20:13:59.881Z,7.50
2022-09-21T20:16:37.476Z,6.18
2022-09-21T20:19:13.884Z,5.15
2022-09-21T20:21:44.573Z,5.57
2022-09-21T20:24:21.291Z,5.57
2022-09-21T20:26:51.973Z,5.35
2022-09-21T20:29:23.245Z,4.88
2022-09-21T20:31:54.052Z,5.45
2022-09-21T20:34:22.650Z,5.53
2022-09-21T20:36:51.288Z,5.43
2022-09-21T20:39:19.904Z,5.25
2022-09-21T20:41:48.942Z,5.43
2022-09-21T20:44:17.547Z,5.60
2022-09-21T20:46:47.477Z,6.32
2022-09-21T20:49:16.172Z,9.10
2022-09-21T20:51:46.055Z,7.53
2022-09-21T20:54:14.593Z,9.25
2022-09-21T20:56:43.410Z,7.80
2022-09-21T20:59:14.733Z,8.00
2022-09-21T21:01:43.366Z,8.18
2022-09-21T21:04:14.216Z,8.70
2022-09-21T21:06:43.137Z,12.35
2022-09-21T21:09:11.634Z,6.72
2022-09-21T21:11:40.375Z,7.05
2022-09-21T21:14:08.983Z,6.05
2022-09-21T21:16:37.667Z,5.20
2022-09-21T21:19:06.184Z,5.70
2022-09-21T21:21:36.470Z,5.28
2022-09-21T21:24:23.011Z,5.25
2022-09-21T21:27:02.650Z,4.88
2022-09-21T21:29:32.242Z,4.68
2022-09-21T21:32:01.266Z,4.72
2022-09-21T21:34:29.854Z,5.18
2022-09-21T21:37:00.077Z,5.28
2022-09-21T21:39:28.677Z,5.03
2022-09-21T21:41:57.214Z,4.80
2022-09-21T21:44:25.719Z,4.82
2022-09-21T21:46:54.819Z,4.95
2022-09-21T21:49:23.381Z,4.47
2022-09-21T21:51:52.359Z,6.95
2022-09-21T21:54:24.518Z,5.13
2022-09-21T21:56:54.048Z,5.70
2022-09-21T21:59:22.788Z,5.38
2022-09-21T22:01:51.351Z,5.50
2022-09-21T22:04:22.471Z,5.50
2022-09-21T22:06:54.223Z,5.38
2022-09-21T22:09:24.318Z,5.30
2022-09-21T22:11:53.087Z,5.22
2022-09-21T22:14:23.092Z,5.47
2022-09-21T22:16:52.968Z,5.13
2022-09-21T22:19:21.543Z,4.60
2022-09-21T22:21:54.023Z,4.85
2022-09-21T22:24:25.210Z,5.00
2022-09-21T22:26:53.828Z,4.72
2022-09-21T22:29:22.332Z,5.00
2022-09-21T22:31:51.633Z,4.55
2022-09-21T22:34:20.940Z,4.47
2022-09-21T22:36:50.278Z,4.05
2022-09-21T22:39:19.149Z,4.50
2022-09-21T22:41:49.018Z,4.00
2022-09-21T22:44:17.658Z,4.35
2022-09-21T22:46:46.187Z,4.25
2022-09-21T22:49:14.682Z,4.30
2022-09-21T22:51:43.209Z,4.28
2022-09-21T22:54:11.772Z,4.20
2022-09-21T22:56:40.359Z,4.03
2022-09-21T22:59:10.347Z,4.10
2022-09-21T23:01:41.207Z,3.85
2022-09-21T23:04:12.419Z,3.70
2022-09-21T23:06:42.416Z,3.33
2022-09-21T23:09:14.480Z,3.33
2022-09-21T23:11:47.206Z,3.20
2022-09-21T23:14:17.840Z,3.45
2022-09-21T23:16:47.113Z,3.28
2022-09-21T23:19:16.553Z,3.60
2022-09-21T23:21:46.814Z,3.47
2022-09-21T23:24:21.186Z,4.65
2022-09-21T23:26:51.567Z,3.78
2022-09-21T23:29:21.786Z,3.55
2022-09-21T23:31:50.434Z,3.35
2022-09-21T23:34:19.073Z,3.80
2022-09-21T23:36:47.719Z,3.60
2022-09-21T23:39:17.027Z,3.60
2022-09-21T23:41:46.022Z,3.40
2022-09-21T23:44:14.651Z,3.35
2022-09-21T23:46:44.604Z,3.50
2022-09-21T23:49:13.177Z,3.60
2022-09-21T23:51:42.539Z,4.45
2022-09-21T23:54:11.120Z,4.00
2022-09-21T23:56:39.631Z,3.90
2022-09-21T23:59:08.738Z,3.70
